Max, NE (69037)

11:06 AM MDT on September 18, 2014 (GMT -0600)
5 North, 1.5 West | Change Station
CLOSE
Current Station
Personal Weather Station
Location: Trenton, NE
Elevation: 2969 ft
Nearby Weather Stations

Elev 2969 ft 40.24 °N, 101.04 °W | Updated 7 minutes ago

Overcast
Overcast
64.0 °F
Feels Like 64.0 °F
N
9.0
Wind Variable Wind from SSE
Gusts 10.0 mph

Today
High -- | Low -- °F
--% Chance of Precip.
Yesterday
High -- | Low -- °F
Precip. -- in
6:29 AM 6:49 PM
Waning Crescent, 26% visible
Pressure 29.94 in
Visibility 5.0 miles
Clouds Overcast 400 ft
Dew Point 55 °F
Humidity 73%
Rainfall -999.00 in
Snow Depth Not available.
UV 2 out of 12
Pollen 6.60 out of 12
Air Quality Not available.
Flu Activity Not available.
METAR KIML 181653Z AUTO 15009KT 5SM BR OVC004 18/17 A3000 RMK AO2 SLP138 T01830172

More Conditions Fewer Conditions

Pressure 29.94 in
Visibility 5.0 miles
Clouds Overcast 400 ft
Dew Point 55 °F
Humidity 73%
Rainfall -999.00 in
Snow Depth Not available.
UV 2 out of 12
Pollen 6.60 out of 12
Air Quality Not available.
Flu Activity Not available.
METAR KIML 181653Z AUTO 15009KT 5SM BR OVC004 18/17 A3000 RMK AO2 SLP138 T01830172

More Conditions Fewer Conditions

10-Day Weather Forecast

Almanac

Astronomy

Sep. 18, 2014 Rise Set
Actual Time 6:29 AM MDT 6:49 PM MDT
Civil Twilight 6:02 AM MDT 7:16 PM MDT
Nautical Twilight 5:30 AM MDT 7:48 PM MDT
Astronomical Twilight 4:57 AM MDT 8:20 PM MDT
Moon 1:22 AM MDT 3:41 PM MDT
Length of Visible Light 13h 14m
Length of Day
12h 19m
Tomorrow will be 2m 37s shorter.
Waning Crescent, 26% of the Moon is Illuminated
Today
Waning Crescent
Sep 24
New
Oct 1
First Quarter
Oct 8
Full
Oct 15
Last Quarter

Today's Extremes

State Highs State Lows

Community

WunderPhotos

Upload Photos

1,754,400 photos uploaded!

Nearby

Snow Depth

Station Depth Elevation
No new snow has been reported.

Earthquake Activity

City Distance Mag. Time & Date
No recent earthquake activity has been reported nearby.
Minimum magnitude displayed is 2.5.

Coastal Water Temperatures

Place Temperature
No Stations Reporting

Nearby Weather Stations